sensor_id;sensor_type;location;lat;lon;timestamp;pressure;altitude;pressure_sealevel;temperature;humidity
27014;BME280;14556;52.222;4.510;2022-12-22T00:00:54;100247.66;;;6.98;100.00
27014;BME280;14556;52.222;4.510;2022-12-22T00:03:39;100250.19;;;7.06;100.00
27014;BME280;14556;52.222;4.510;2022-12-22T00:06:24;100242.19;;;7.06;100.00
27014;BME280;14556;52.222;4.510;2022-12-22T00:09:09;100246.88;;;7.04;100.00
27014;BME280;14556;52.222;4.510;2022-12-22T00:11:54;100254.50;;;7.07;100.00
27014;BME280;14556;52.222;4.510;2022-12-22T00:14:40;100247.00;;;6.96;100.00
27014;BME280;14556;52.222;4.510;2022-12-22T00:17:27;100255.13;;;7.09;100.00
27014;BME280;14556;52.222;4.510;2022-12-22T00:20:18;100251.31;;;7.19;100.00
27014;BME280;14556;52.222;4.510;2022-12-22T00:23:03;100258.53;;;7.03;100.00
27014;BME280;14556;52.222;4.510;2022-12-22T00:25:49;100245.00;;;6.98;100.00
27014;BME280;14556;52.222;4.510;2022-12-22T00:28:34;100240.06;;;6.95;100.00
27014;BME280;14556;52.222;4.510;2022-12-22T00:31:21;100234.41;;;7.05;100.00
27014;BME280;14556;52.222;4.510;2022-12-22T00:34:14;100220.19;;;7.12;100.00
27014;BME280;14556;52.222;4.510;2022-12-22T00:37:00;100218.91;;;7.08;100.00
27014;BME280;14556;52.222;4.510;2022-12-22T00:39:45;100210.28;;;7.06;100.00
27014;BME280;14556;52.222;4.510;2022-12-22T00:42:30;100211.56;;;7.10;100.00
27014;BME280;14556;52.222;4.510;2022-12-22T00:45:15;100200.53;;;7.13;100.00
27014;BME280;14556;52.222;4.510;2022-12-22T00:48:01;100194.13;;;7.08;100.00
27014;BME280;14556;52.222;4.510;2022-12-22T00:50:46;100199.66;;;7.06;100.00
27014;BME280;14556;52.222;4.510;2022-12-22T00:53:31;100197.38;;;7.03;100.00
27014;BME280;14556;52.222;4.510;2022-12-22T00:56:16;100189.34;;;6.96;100.00
27014;BME280;14556;52.222;4.510;2022-12-22T00:59:01;100191.16;;;6.96;100.00
27014;BME280;14556;52.222;4.510;2022-12-22T01:01:46;100196.28;;;6.97;100.00
27014;BME280;14556;52.222;4.510;2022-12-22T01:04:31;100191.22;;;7.03;100.00
27014;BME280;14556;52.222;4.510;2022-12-22T01:07:18;100190.03;;;7.05;100.00
27014;BME280;14556;52.222;4.510;2022-12-22T01:10:11;100194.97;;;7.08;100.00
27014;BME280;14556;52.222;4.510;2022-12-22T01:12:56;100189.00;;;7.06;100.00
27014;BME280;14556;52.222;4.510;2022-12-22T01:15:42;100189.59;;;7.01;100.00
27014;BME280;14556;52.222;4.510;2022-12-22T01:18:27;100187.78;;;7.02;100.00
27014;BME280;14556;52.222;4.510;2022-12-22T01:21:19;100196.75;;;7.01;100.00
27014;BME280;14556;52.222;4.510;2022-12-22T01:24:11;100192.44;;;7.00;100.00
27014;BME280;14556;52.222;4.510;2022-12-22T01:26:56;100191.41;;;7.01;100.00
27014;BME280;14556;52.222;4.510;2022-12-22T01:29:42;100183.06;;;7.04;100.00
27014;BME280;14556;52.222;4.510;2022-12-22T01:32:27;100181.63;;;7.01;100.00
27014;BME280;14556;52.222;4.510;2022-12-22T01:35:22;100177.75;;;7.04;100.00
27014;BME280;14556;52.222;4.510;2022-12-22T01:38:07;100172.56;;;6.96;100.00
27014;BME280;14556;52.222;4.510;2022-12-22T01:40:54;100178.75;;;7.03;100.00
27014;BME280;14556;52.222;4.510;2022-12-22T01:43:39;100180.59;;;7.03;100.00
27014;BME280;14556;52.222;4.510;2022-12-22T01:46:39;100174.47;;;7.02;100.00
27014;BME280;14556;52.222;4.510;2022-12-22T01:49:50;100173.84;;;7.00;100.00
27014;BME280;14556;52.222;4.510;2022-12-22T01:52:35;100166.84;;;6.99;100.00
27014;BME280;14556;52.222;4.510;2022-12-22T01:55:22;100166.25;;;6.97;100.00
27014;BME280;14556;52.222;4.510;2022-12-22T01:58:15;100159.91;;;6.98;100.00
27014;BME280;14556;52.222;4.510;2022-12-22T02:01:04;100151.28;;;6.96;100.00
27014;BME280;14556;52.222;4.510;2022-12-22T02:03:49;100146.94;;;6.88;100.00
27014;BME280;14556;52.222;4.510;2022-12-22T02:06:39;100164.38;;;6.97;100.00
27014;BME280;14556;52.222;4.510;2022-12-22T02:09:54;100161.53;;;6.99;100.00
27014;BME280;14556;52.222;4.510;2022-12-22T02:13:02;100157.88;;;7.00;100.00
27014;BME280;14556;52.222;4.510;2022-12-22T02:16:10;100158.88;;;6.99;100.00
27014;BME280;14556;52.222;4.510;2022-12-22T02:19:03;100152.38;;;7.01;100.00
27014;BME280;14556;52.222;4.510;2022-12-22T02:25:02;100146.25;;;7.08;100.00
27014;BME280;14556;52.222;4.510;2022-12-22T02:27:48;100151.13;;;7.04;100.00
27014;BME280;14556;52.222;4.510;2022-12-22T02:30:35;100149.50;;;7.03;100.00
27014;BME280;14556;52.222;4.510;2022-12-22T02:33:21;100140.69;;;7.03;100.00
27014;BME280;14556;52.222;4.510;2022-12-22T02:36:16;100141.34;;;7.05;100.00
27014;BME280;14556;52.222;4.510;2022-12-22T02:39:17;100135.38;;;7.03;100.00
27014;BME280;14556;52.222;4.510;2022-12-22T02:42:13;100123.94;;;7.02;100.00
27014;BME280;14556;52.222;4.510;2022-12-22T02:48:14;100125.44;;;7.11;100.00
27014;BME280;14556;52.222;4.510;2022-12-22T02:51:06;100127.09;;;7.12;100.00
27014;BME280;14556;52.222;4.510;2022-12-22T02:53:53;100131.38;;;7.13;100.00
27014;BME280;14556;52.222;4.510;2022-12-22T02:56:40;100129.34;;;7.16;100.00
27014;BME280;14556;52.222;4.510;2022-12-22T02:59:25;100116.69;;;7.18;100.00
27014;BME280;14556;52.222;4.510;2022-12-22T03:02:12;100117.69;;;7.17;100.00
27014;BME280;14556;52.222;4.510;2022-12-22T03:04:57;100119.13;;;7.12;100.00
27014;BME280;14556;52.222;4.510;2022-12-22T03:07:43;100114.34;;;7.08;100.00
27014;BME280;14556;52.222;4.510;2022-12-22T03:10:35;100107.19;;;7.08;100.00
27014;BME280;14556;52.222;4.510;2022-12-22T03:13:20;100102.53;;;7.10;100.00
27014;BME280;14556;52.222;4.510;2022-12-22T03:16:05;100109.66;;;7.10;100.00
27014;BME280;14556;52.222;4.510;2022-12-22T03:18:51;100091.25;;;7.08;100.00
27014;BME280;14556;52.222;4.510;2022-12-22T03:21:37;100095.16;;;7.12;100.00
27014;BME280;14556;52.222;4.510;2022-12-22T03:24:22;100086.78;;;7.16;100.00
27014;BME280;14556;52.222;4.510;2022-12-22T03:27:07;100085.97;;;7.15;100.00
27014;BME280;14556;52.222;4.510;2022-12-22T03:29:34;100085.50;;;7.05;100.00
27014;BME280;14556;52.222;4.510;2022-12-22T03:32:00;100087.75;;;7.08;100.00
27014;BME280;14556;52.222;4.510;2022-12-22T03:34:27;100102.31;;;7.12;100.00
27014;BME280;14556;52.222;4.510;2022-12-22T03:36:53;100107.00;;;7.10;100.00
27014;BME280;14556;52.222;4.510;2022-12-22T03:39:20;100108.66;;;7.11;100.00
27014;BME280;14556;52.222;4.510;2022-12-22T03:41:46;100107.19;;;7.08;100.00
27014;BME280;14556;52.222;4.510;2022-12-22T03:44:31;100100.69;;;7.11;100.00
27014;BME280;14556;52.222;4.510;2022-12-22T03:47:16;100092.06;;;7.09;100.00
27014;BME280;14556;52.222;4.510;2022-12-22T03:49:43;100097.16;;;7.04;100.00
27014;BME280;14556;52.222;4.510;2022-12-22T03:52:09;100094.06;;;7.00;100.00
27014;BME280;14556;52.222;4.510;2022-12-22T03:54:35;100096.97;;;7.05;100.00
27014;BME280;14556;52.222;4.510;2022-12-22T03:57:02;100101.44;;;7.05;100.00
27014;BME280;14556;52.222;4.510;2022-12-22T03:59:30;100105.94;;;7.04;100.00
27014;BME280;14556;52.222;4.510;2022-12-22T04:01:56;100101.25;;;7.06;100.00
27014;BME280;14556;52.222;4.510;2022-12-22T04:04:25;100109.66;;;7.10;100.00
27014;BME280;14556;52.222;4.510;2022-12-22T04:06:52;100119.47;;;7.09;100.00
27014;BME280;14556;52.222;4.510;2022-12-22T04:09:19;100119.47;;;7.09;100.00
27014;BME280;14556;52.222;4.510;2022-12-22T04:11:47;100123.78;;;7.10;100.00
27014;BME280;14556;52.222;4.510;2022-12-22T04:14:32;100130.50;;;7.06;100.00
27014;BME280;14556;52.222;4.510;2022-12-22T04:17:03;100120.91;;;7.05;100.00
27014;BME280;14556;52.222;4.510;2022-12-22T04:19:30;100127.22;;;7.04;100.00
27014;BME280;14556;52.222;4.510;2022-12-22T04:21:58;100115.56;;;7.05;100.00
27014;BME280;14556;52.222;4.510;2022-12-22T04:24:25;100125.56;;;7.03;100.00
27014;BME280;14556;52.222;4.510;2022-12-22T04:26:51;100122.09;;;7.03;100.00
27014;BME280;14556;52.222;4.510;2022-12-22T04:29:18;100123.56;;;7.05;100.00
27014;BME280;14556;52.222;4.510;2022-12-22T04:31:44;100120.69;;;7.07;100.00
27014;BME280;14556;52.222;4.510;2022-12-22T04:34:11;100127.84;;;7.06;100.00
27014;BME280;14556;52.222;4.510;2022-12-22T04:36:37;100129.50;;;7.07;100.00
27014;BME280;14556;52.222;4.510;2022-12-22T04:39:04;100133.78;;;7.08;100.00
27014;BME280;14556;52.222;4.510;2022-12-22T04:41:30;100121.97;;;7.11;100.00
27014;BME280;14556;52.222;4.510;2022-12-22T04:43:57;100116.56;;;7.04;100.00
27014;BME280;14556;52.222;4.510;2022-12-22T04:46:23;100133.56;;;7.03;100.00
27014;BME280;14556;52.222;4.510;2022-12-22T04:48:50;100126.59;;;7.02;100.00
27014;BME280;14556;52.222;4.510;2022-12-22T04:51:24;100132.38;;;7.06;100.00
27014;BME280;14556;52.222;4.510;2022-12-22T04:53:51;100126.34;;;6.97;100.00
27014;BME280;14556;52.222;4.510;2022-12-22T04:56:17;100125.34;;;6.98;100.00
27014;BME280;14556;52.222;4.510;2022-12-22T04:58:44;100128.81;;;6.98;100.00
27014;BME280;14556;52.222;4.510;2022-12-22T05:01:15;100129.63;;;6.99;100.00
27014;BME280;14556;52.222;4.510;2022-12-22T05:03:42;100139.06;;;7.01;100.00
27014;BME280;14556;52.222;4.510;2022-12-22T05:06:09;100144.38;;;7.01;100.00
27014;BME280;14556;52.222;4.510;2022-12-22T05:08:36;100147.44;;;6.98;100.00
27014;BME280;14556;52.222;4.510;2022-12-22T05:11:03;100151.09;;;6.97;100.00
27014;BME280;14556;52.222;4.510;2022-12-22T05:13:30;100150.91;;;6.99;100.00
27014;BME280;14556;52.222;4.510;2022-12-22T05:16:10;100153.31;;;6.94;100.00
27014;BME280;14556;52.222;4.510;2022-12-22T05:18:39;100143.25;;;6.89;100.00
27014;BME280;14556;52.222;4.510;2022-12-22T05:21:08;100160.69;;;6.92;100.00
27014;BME280;14556;52.222;4.510;2022-12-22T05:23:36;100158.38;;;6.88;100.00
27014;BME280;14556;52.222;4.510;2022-12-22T05:26:03;100152.00;;;6.83;100.00
27014;BME280;14556;52.222;4.510;2022-12-22T05:28:29;100161.63;;;6.84;100.00
27014;BME280;14556;52.222;4.510;2022-12-22T05:31:06;100165.50;;;6.81;100.00
27014;BME280;14556;52.222;4.510;2022-12-22T05:33:33;100154.22;;;6.79;100.00
27014;BME280;14556;52.222;4.510;2022-12-22T05:35:59;100154.59;;;6.76;100.00
27014;BME280;14556;52.222;4.510;2022-12-22T05:38:26;100156.19;;;6.70;100.00
27014;BME280;14556;52.222;4.510;2022-12-22T05:40:53;100160.66;;;6.70;100.00
27014;BME280;14556;52.222;4.510;2022-12-22T05:43:29;100164.91;;;6.64;100.00
27014;BME280;14556;52.222;4.510;2022-12-22T05:45:55;100160.34;;;6.58;100.00
27014;BME280;14556;52.222;4.510;2022-12-22T05:48:23;100182.63;;;6.57;100.00
27014;BME280;14556;52.222;4.510;2022-12-22T05:50:59;100158.94;;;6.40;100.00
27014;BME280;14556;52.222;4.510;2022-12-22T05:53:25;100180.84;;;6.42;100.00
27014;BME280;14556;52.222;4.510;2022-12-22T05:55:51;100178.28;;;6.34;100.00
27014;BME280;14556;52.222;4.510;2022-12-22T05:58:18;100176.56;;;6.26;100.00
27014;BME280;14556;52.222;4.510;2022-12-22T06:00:44;100173.38;;;6.15;100.00
27014;BME280;14556;52.222;4.510;2022-12-22T06:03:11;100178.88;;;6.14;100.00
27014;BME280;14556;52.222;4.510;2022-12-22T06:05:38;100175.13;;;6.08;100.00
27014;BME280;14556;52.222;4.510;2022-12-22T06:08:04;100182.28;;;6.08;100.00
27014;BME280;14556;52.222;4.510;2022-12-22T06:10:31;100185.63;;;6.01;100.00
27014;BME280;14556;52.222;4.510;2022-12-22T06:12:57;100188.00;;;5.96;100.00
27014;BME280;14556;52.222;4.510;2022-12-22T06:15:24;100194.97;;;5.97;100.00
27014;BME280;14556;52.222;4.510;2022-12-22T06:17:50;100188.50;;;5.85;100.00
27014;BME280;14556;52.222;4.510;2022-12-22T06:20:17;100200.19;;;5.90;100.00
27014;BME280;14556;52.222;4.510;2022-12-22T06:22:43;100210.34;;;5.87;100.00
27014;BME280;14556;52.222;4.510;2022-12-22T06:25:10;100215.84;;;5.85;100.00
27014;BME280;14556;52.222;4.510;2022-12-22T06:27:43;100219.06;;;5.80;100.00
27014;BME280;14556;52.222;4.510;2022-12-22T06:30:10;100222.88;;;5.78;100.00
27014;BME280;14556;52.222;4.510;2022-12-22T06:32:38;100221.88;;;5.79;100.00
27014;BME280;14556;52.222;4.510;2022-12-22T06:35:05;100223.19;;;5.83;100.00
27014;BME280;14556;52.222;4.510;2022-12-22T06:37:32;100226.47;;;5.85;100.00
27014;BME280;14556;52.222;4.510;2022-12-22T06:39:58;100229.75;;;5.87;100.00
27014;BME280;14556;52.222;4.510;2022-12-22T06:42:25;100236.53;;;5.90;100.00
27014;BME280;14556;52.222;4.510;2022-12-22T06:45:10;100224.25;;;5.89;100.00
27014;BME280;14556;52.222;4.510;2022-12-22T06:47:36;100233.53;;;5.93;100.00
27014;BME280;14556;52.222;4.510;2022-12-22T06:50:03;100216.22;;;5.82;100.00
27014;BME280;14556;52.222;4.510;2022-12-22T06:52:30;100244.31;;;5.91;100.00
27014;BME280;14556;52.222;4.510;2022-12-22T06:54:56;100257.41;;;5.93;100.00
27014;BME280;14556;52.222;4.510;2022-12-22T06:57:23;100255.31;;;5.88;100.00
27014;BME280;14556;52.222;4.510;2022-12-22T06:59:49;100243.88;;;5.88;100.00
27014;BME280;14556;52.222;4.510;2022-12-22T07:02:22;100239.72;;;5.85;100.00
27014;BME280;14556;52.222;4.510;2022-12-22T07:04:49;100240.09;;;5.82;100.00
27014;BME280;14556;52.222;4.510;2022-12-22T07:07:15;100236.59;;;5.81;100.00
27014;BME280;14556;52.222;4.510;2022-12-22T07:09:42;100252.53;;;5.81;100.00
27014;BME280;14556;52.222;4.510;2022-12-22T07:12:08;100257.22;;;5.79;100.00
27014;BME280;14556;52.222;4.510;2022-12-22T07:14:35;100260.88;;;5.78;100.00
27014;BME280;14556;52.222;4.510;2022-12-22T07:17:02;100248.13;;;5.59;100.00
27014;BME280;14556;52.222;4.510;2022-12-22T07:19:28;100263.97;;;5.67;100.00
27014;BME280;14556;52.222;4.510;2022-12-22T07:21:55;100269.81;;;5.62;100.00
27014;BME280;14556;52.222;4.510;2022-12-22T07:24:22;100259.81;;;5.49;100.00
27014;BME280;14556;52.222;4.510;2022-12-22T07:26:51;100262.09;;;5.52;100.00
27014;BME280;14556;52.222;4.510;2022-12-22T07:29:18;100262.09;;;5.52;100.00
27014;BME280;14556;52.222;4.510;2022-12-22T07:31:44;100266.56;;;5.52;100.00
27014;BME280;14556;52.222;4.510;2022-12-22T07:34:11;100272.06;;;5.50;100.00
27014;BME280;14556;52.222;4.510;2022-12-22T07:36:38;100249.78;;;5.36;100.00
27014;BME280;14556;52.222;4.510;2022-12-22T07:39:05;100284.53;;;5.50;100.00
27014;BME280;14556;52.222;4.510;2022-12-22T07:41:31;100282.38;;;5.45;100.00
27014;BME280;14556;52.222;4.510;2022-12-22T07:44:17;100281.28;;;5.39;100.00
27014;BME280;14556;52.222;4.510;2022-12-22T07:46:43;100286.75;;;5.38;100.00
27014;BME280;14556;52.222;4.510;2022-12-22T07:49:10;100285.28;;;5.35;100.00
27014;BME280;14556;52.222;4.510;2022-12-22T07:51:56;100290.59;;;5.35;100.00
27014;BME280;14556;52.222;4.510;2022-12-22T07:54:25;100305.50;;;5.36;100.00
27014;BME280;14556;52.222;4.510;2022-12-22T07:56:53;100305.50;;;5.36;100.00
27014;BME280;14556;52.222;4.510;2022-12-22T07:59:19;100302.38;;;5.32;100.00
27014;BME280;14556;52.222;4.510;2022-12-22T08:01:46;100305.75;;;5.26;100.00
27014;BME280;14556;52.222;4.510;2022-12-22T08:04:13;100317.19;;;5.27;100.00
27014;BME280;14556;52.222;4.510;2022-12-22T08:06:40;100326.19;;;5.17;100.00
27014;BME280;14556;52.222;4.510;2022-12-22T08:09:07;100318.78;;;5.13;100.00
27014;BME280;14556;52.222;4.510;2022-12-22T08:11:34;100321.94;;;5.08;100.00
27014;BME280;14556;52.222;4.510;2022-12-22T08:14:01;100328.25;;;5.07;100.00
27014;BME280;14556;52.222;4.510;2022-12-22T08:16:28;100334.19;;;5.09;100.00
27014;BME280;14556;52.222;4.510;2022-12-22T08:18:55;100349.28;;;5.08;100.00
27014;BME280;14556;52.222;4.510;2022-12-22T08:21:21;100344.81;;;5.09;100.00
27014;BME280;14556;52.222;4.510;2022-12-22T08:23:48;100349.75;;;5.12;100.00
27014;BME280;14556;52.222;4.510;2022-12-22T08:26:17;100353.25;;;5.13;100.00
27014;BME280;14556;52.222;4.510;2022-12-22T08:29:00;100354.22;;;5.12;100.00
27014;BME280;14556;52.222;4.510;2022-12-22T08:31:28;100361.84;;;5.15;100.00
27014;BME280;14556;52.222;4.510;2022-12-22T08:33:58;100357.72;;;5.12;100.00
27014;BME280;14556;52.222;4.510;2022-12-22T08:36:29;100343.00;;;5.01;100.00
27014;BME280;14556;52.222;4.510;2022-12-22T08:38:57;100359.22;;;5.06;100.00
27014;BME280;14556;52.222;4.510;2022-12-22T08:41:24;100367.00;;;5.08;100.00
27014;BME280;14556;52.222;4.510;2022-12-22T08:44:08;100361.22;;;5.04;100.00
27014;BME280;14556;52.222;4.510;2022-12-22T08:46:35;100359.75;;;5.02;100.00
27014;BME280;14556;52.222;4.510;2022-12-22T08:49:02;100370.72;;;4.99;100.00
27014;BME280;14556;52.222;4.510;2022-12-22T08:51:28;100371.50;;;4.99;100.00
27014;BME280;14556;52.222;4.510;2022-12-22T08:53:54;100373.00;;;5.02;100.00
27014;BME280;14556;52.222;4.510;2022-12-22T08:56:31;100367.53;;;5.03;100.00
27014;BME280;14556;52.222;4.510;2022-12-22T08:58:57;100382.09;;;5.07;100.00
27014;BME280;14556;52.222;4.510;2022-12-22T09:01:23;100374.78;;;5.10;100.00
27014;BME280;14556;52.222;4.510;2022-12-22T09:03:52;100393.66;;;5.15;100.00
27014;BME280;14556;52.222;4.510;2022-12-22T09:06:20;100392.13;;;5.20;100.00
27014;BME280;14556;52.222;4.510;2022-12-22T09:09:00;100395.72;;;5.28;100.00
27014;BME280;14556;52.222;4.510;2022-12-22T09:11:28;100379.13;;;5.34;100.00
27014;BME280;14556;52.222;4.510;2022-12-22T09:13:56;100381.91;;;5.41;100.00
27014;BME280;14556;52.222;4.510;2022-12-22T09:16:25;100379.09;;;5.42;100.00
27014;BME280;14556;52.222;4.510;2022-12-22T09:18:53;100388.16;;;5.48;100.00
27014;BME280;14556;52.222;4.510;2022-12-22T09:21:23;100390.28;;;5.53;100.00
27014;BME280;14556;52.222;4.510;2022-12-22T09:23:49;100387.94;;;5.58;100.00
27014;BME280;14556;52.222;4.510;2022-12-22T09:26:18;100387.56;;;5.61;100.00
27014;BME280;14556;52.222;4.510;2022-12-22T09:28:45;100383.09;;;5.62;100.00
27014;BME280;14556;52.222;4.510;2022-12-22T09:31:17;100396.84;;;5.65;100.00
27014;BME280;14556;52.222;4.510;2022-12-22T09:33:44;100389.06;;;5.64;100.00
27014;BME280;14556;52.222;4.510;2022-12-22T09:36:17;100408.38;;;5.73;100.00
27014;BME280;14556;52.222;4.510;2022-12-22T09:38:43;100408.03;;;5.76;100.00
27014;BME280;14556;52.222;4.510;2022-12-22T09:41:22;100402.72;;;5.76;100.00
27014;BME280;14556;52.222;4.510;2022-12-22T09:43:51;100417.94;;;5.82;100.00
27014;BME280;14556;52.222;4.510;2022-12-22T09:46:21;100427.22;;;5.86;100.00
27014;BME280;14556;52.222;4.510;2022-12-22T09:48:49;100415.56;;;5.87;100.00
27014;BME280;14556;52.222;4.510;2022-12-22T09:51:16;100419.34;;;5.93;100.00
27014;BME280;14556;52.222;4.510;2022-12-22T09:54:10;100418.16;;;5.96;100.00
27014;BME280;14556;52.222;4.510;2022-12-22T09:56:37;100423.94;;;5.99;100.00
27014;BME280;14556;52.222;4.510;2022-12-22T09:59:09;100423.56;;;6.02;100.00
27014;BME280;14556;52.222;4.510;2022-12-22T10:04:31;100427.69;;;6.13;100.00
27014;BME280;14556;52.222;4.510;2022-12-22T10:09:34;100437.22;;;6.23;100.00
27014;BME280;14556;52.222;4.510;2022-12-22T10:12:19;100431.75;;;6.24;100.00
27014;BME280;14556;52.222;4.510;2022-12-22T10:14:48;100434.13;;;6.34;100.00
27014;BME280;14556;52.222;4.510;2022-12-22T10:19:53;100426.66;;;6.53;100.00
27014;BME280;14556;52.222;4.510;2022-12-22T10:22:24;100417.75;;;6.61;100.00
27014;BME280;14556;52.222;4.510;2022-12-22T10:24:51;100426.19;;;6.80;100.00
27014;BME280;14556;52.222;4.510;2022-12-22T10:27:20;100448.66;;;7.07;100.00
27014;BME280;14556;52.222;4.510;2022-12-22T10:30:21;100446.16;;;7.58;100.00
27014;BME280;14556;52.222;4.510;2022-12-22T10:33:10;100447.69;;;8.11;100.00
27014;BME280;14556;52.222;4.510;2022-12-22T10:38:28;100452.94;;;8.55;100.00
27014;BME280;14556;52.222;4.510;2022-12-22T10:40:59;100455.59;;;8.26;100.00
27014;BME280;14556;52.222;4.510;2022-12-22T10:43:38;100451.06;;;7.98;100.00
27014;BME280;14556;52.222;4.510;2022-12-22T10:46:05;100457.38;;;7.97;100.00
27014;BME280;14556;52.222;4.510;2022-12-22T10:48:35;100441.34;;;8.12;100.00
27014;BME280;14556;52.222;4.510;2022-12-22T10:51:06;100444.69;;;8.50;100.00
27014;BME280;14556;52.222;4.510;2022-12-22T10:53:52;100447.78;;;8.75;100.00
27014;BME280;14556;52.222;4.510;2022-12-22T10:56:26;100443.34;;;8.89;100.00
27014;BME280;14556;52.222;4.510;2022-12-22T11:01:30;100446.91;;;9.73;100.00
27014;BME280;14556;52.222;4.510;2022-12-22T11:04:14;100437.47;;;10.11;100.00
27014;BME280;14556;52.222;4.510;2022-12-22T11:06:42;100424.53;;;10.55;100.00
27014;BME280;14556;52.222;4.510;2022-12-22T11:09:10;100423.47;;;10.63;100.00
27014;BME280;14556;52.222;4.510;2022-12-22T11:18:13;100430.16;;;10.99;100.00
27014;BME280;14556;52.222;4.510;2022-12-22T11:21:02;100444.03;;;11.29;100.00
27014;BME280;14556;52.222;4.510;2022-12-22T11:23:37;100436.13;;;12.12;100.00
27014;BME280;14556;52.222;4.510;2022-12-22T11:26:34;100435.09;;;12.13;100.00
27014;BME280;14556;52.222;4.510;2022-12-22T11:29:34;100420.84;;;12.13;100.00
27014;BME280;14556;52.222;4.510;2022-12-22T11:37:52;100429.47;;;10.04;100.00
27014;BME280;14556;52.222;4.510;2022-12-22T11:45:49;100456.34;;;8.70;100.00
27014;BME280;14556;52.222;4.510;2022-12-22T11:56:40;100455.84;;;8.31;100.00
27014;BME280;14556;52.222;4.510;2022-12-22T12:02:25;100466.34;;;7.89;100.00
27014;BME280;14556;52.222;4.510;2022-12-22T12:07:47;100459.81;;;7.70;100.00
27014;BME280;14556;52.222;4.510;2022-12-22T12:10:24;100452.75;;;7.62;100.00
27014;BME280;14556;52.222;4.510;2022-12-22T12:12:54;100467.28;;;7.59;100.00
27014;BME280;14556;52.222;4.510;2022-12-22T12:15:29;100452.41;;;7.50;100.00
27014;BME280;14556;52.222;4.510;2022-12-22T12:23:42;100466.50;;;7.44;100.00
27014;BME280;14556;52.222;4.510;2022-12-22T12:26:40;100445.56;;;7.41;100.00
27014;BME280;14556;52.222;4.510;2022-12-22T12:29:14;100452.47;;;7.35;100.00
27014;BME280;14556;52.222;4.510;2022-12-22T12:31:47;100457.59;;;7.36;100.00
27014;BME280;14556;52.222;4.510;2022-12-22T12:34:18;100448.50;;;7.31;100.00
27014;BME280;14556;52.222;4.510;2022-12-22T12:37:07;100456.94;;;7.34;100.00
27014;BME280;14556;52.222;4.510;2022-12-22T12:44:54;100441.66;;;7.21;100.00
27014;BME280;14556;52.222;4.510;2022-12-22T12:47:48;100445.06;;;7.30;100.00
27014;BME280;14556;52.222;4.510;2022-12-22T12:50:33;100437.41;;;7.27;100.00
27014;BME280;14556;52.222;4.510;2022-12-22T12:53:06;100438.91;;;7.30;100.00
27014;BME280;14556;52.222;4.510;2022-12-22T12:58:11;100449.53;;;7.30;100.00
27014;BME280;14556;52.222;4.510;2022-12-22T13:09:20;100437.59;;;7.25;100.00
27014;BME280;14556;52.222;4.510;2022-12-22T13:12:33;100433.97;;;7.27;100.00
27014;BME280;14556;52.222;4.510;2022-12-22T13:15:03;100416.69;;;7.22;100.00
27014;BME280;14556;52.222;4.510;2022-12-22T13:17:46;100415.69;;;7.23;100.00
27014;BME280;14556;52.222;4.510;2022-12-22T13:20:21;100413.78;;;7.17;100.00
27014;BME280;14556;52.222;4.510;2022-12-22T13:22:54;100410.56;;;7.22;100.00
27014;BME280;14556;52.222;4.510;2022-12-22T13:25:24;100403.03;;;7.25;100.00
27014;BME280;14556;52.222;4.510;2022-12-22T13:27:53;100391.38;;;7.27;100.00
27014;BME280;14556;52.222;4.510;2022-12-22T13:30:21;100397.31;;;7.29;100.00
27014;BME280;14556;52.222;4.510;2022-12-22T13:32:48;100396.53;;;7.28;100.00
27014;BME280;14556;52.222;4.510;2022-12-22T13:35:26;100391.53;;;7.25;100.00
27014;BME280;14556;52.222;4.510;2022-12-22T13:37:58;100382.75;;;7.24;100.00
27014;BME280;14556;52.222;4.510;2022-12-22T13:40:30;100386.53;;;7.30;100.00
27014;BME280;14556;52.222;4.510;2022-12-22T13:43:04;100381.81;;;7.32;100.00
27014;BME280;14556;52.222;4.510;2022-12-22T13:45:37;100372.19;;;7.31;100.00
27014;BME280;14556;52.222;4.510;2022-12-22T13:48:08;100350.38;;;7.21;100.00
27014;BME280;14556;52.222;4.510;2022-12-22T13:50:42;100371.81;;;7.34;100.00
27014;BME280;14556;52.222;4.510;2022-12-22T13:53:19;100368.31;;;7.34;100.00
27014;BME280;14556;52.222;4.510;2022-12-22T13:56:13;100364.00;;;7.33;100.00
27014;BME280;14556;52.222;4.510;2022-12-22T13:58:42;100359.91;;;7.30;100.00
27014;BME280;14556;52.222;4.510;2022-12-22T14:03:38;100349.63;;;7.27;100.00
27014;BME280;14556;52.222;4.510;2022-12-22T14:06:31;100338.97;;;7.27;100.00
27014;BME280;14556;52.222;4.510;2022-12-22T14:09:20;100344.75;;;7.31;100.00
27014;BME280;14556;52.222;4.510;2022-12-22T14:12:02;100347.22;;;7.32;100.00
27014;BME280;14556;52.222;4.510;2022-12-22T14:14:39;100336.75;;;7.31;100.00
27014;BME280;14556;52.222;4.510;2022-12-22T14:17:26;100333.91;;;7.32;100.00
27014;BME280;14556;52.222;4.510;2022-12-22T14:19:58;100314.78;;;7.22;100.00
27014;BME280;14556;52.222;4.510;2022-12-22T14:24:58;100318.53;;;7.28;100.00
27014;BME280;14556;52.222;4.510;2022-12-22T14:27:34;100319.38;;;7.28;100.00
27014;BME280;14556;52.222;4.510;2022-12-22T14:30:05;100316.06;;;7.26;100.00
27014;BME280;14556;52.222;4.510;2022-12-22T14:32:47;100321.78;;;7.23;100.00
27014;BME280;14556;52.222;4.510;2022-12-22T14:37:50;100330.28;;;7.18;100.00
27014;BME280;14556;52.222;4.510;2022-12-22T14:40:28;100333.16;;;7.17;100.00
27014;BME280;14556;52.222;4.510;2022-12-22T14:42:56;100328.84;;;7.16;100.00
27014;BME280;14556;52.222;4.510;2022-12-22T14:45:24;100322.88;;;7.13;100.00
27014;BME280;14556;52.222;4.510;2022-12-22T14:47:53;100325.56;;;7.13;100.00
27014;BME280;14556;52.222;4.510;2022-12-22T14:50:23;100317.56;;;7.13;100.00
27014;BME280;14556;52.222;4.510;2022-12-22T14:52:55;100306.41;;;7.03;100.00